createdAt,value
2023-02-08T00:01:44.186Z,103153.88
2023-02-08T00:04:13.524Z,103151.25
2023-02-08T00:06:42.770Z,103150.41
2023-02-08T00:09:12.243Z,103162.50
2023-02-08T00:11:41.352Z,103162.50
2023-02-08T00:14:11.985Z,103160.66
2023-02-08T00:16:41.200Z,103158.94
2023-02-08T00:19:10.467Z,103160.63
2023-02-08T00:21:39.474Z,103169.28
2023-02-08T00:24:09.297Z,103166.66
2023-02-08T00:26:38.314Z,103174.38
2023-02-08T00:29:07.613Z,103170.91
2023-02-08T00:31:38.115Z,103173.53
2023-02-08T00:34:07.486Z,103164.91
2023-02-08T00:36:36.483Z,103171.03
2023-02-08T00:39:05.918Z,103165.84
2023-02-08T00:41:35.043Z,103160.59
2023-02-08T00:44:04.364Z,103168.34
2023-02-08T00:46:33.552Z,103165.69
2023-02-08T00:49:04.220Z,103168.31
2023-02-08T00:51:33.333Z,103173.50
2023-02-08T00:54:02.648Z,103174.31
2023-02-08T00:56:31.700Z,103175.16
2023-02-08T00:59:01.990Z,103178.63
2023-02-08T01:01:31.048Z,103170.88
2023-02-08T01:04:00.338Z,103178.66
2023-02-08T01:06:30.681Z,103183.84
2023-02-08T01:09:00.073Z,103166.56
2023-02-08T01:11:29.239Z,103174.34
2023-02-08T01:13:59.446Z,103169.97
2023-02-08T01:16:33.077Z,103173.44
2023-02-08T01:19:05.286Z,103172.59
2023-02-08T01:21:41.934Z,103181.22
2023-02-08T01:24:12.072Z,103172.53
2023-02-08T01:26:41.019Z,103176.91
2023-02-08T01:29:11.029Z,103173.44
2023-02-08T01:31:43.553Z,103178.63
2023-02-08T01:34:14.262Z,103172.53
2023-02-08T01:36:46.873Z,103182.91
2023-02-08T01:39:16.161Z,103183.81
2023-02-08T01:41:47.680Z,103186.41
2023-02-08T01:45:26.842Z,103183.84
2023-02-08T01:48:05.400Z,103188.22
2023-02-08T01:50:46.354Z,103187.34
2023-02-08T01:53:16.961Z,103188.16
2023-02-08T01:55:53.862Z,103182.06
2023-02-08T01:58:26.277Z,103196.72
2023-02-08T02:00:56.214Z,103187.13
2023-02-08T02:03:26.387Z,103187.16
2023-02-08T02:06:11.146Z,103201.00
2023-02-08T02:08:50.704Z,103193.22
2023-02-08T02:11:21.489Z,103198.44
2023-02-08T02:13:52.224Z,103195.88
2023-02-08T02:16:21.902Z,103185.47
2023-02-08T02:18:51.115Z,103201.00
2023-02-08T02:21:47.149Z,103202.78
2023-02-08T02:24:56.893Z,103201.91
2023-02-08T02:27:47.473Z,103200.16
2023-02-08T02:31:18.789Z,103188.94
2023-02-08T02:34:08.073Z,103196.75
2023-02-08T02:36:51.759Z,103202.78
2023-02-08T02:39:33.841Z,103201.94
2023-02-08T02:42:32.414Z,103207.06
2023-02-08T02:45:16.076Z,103207.91
2023-02-08T02:47:57.065Z,103209.59
2023-02-08T02:50:38.167Z,103206.97
2023-02-08T02:53:18.814Z,103209.63
2023-02-08T02:55:56.086Z,103218.25
2023-02-08T02:58:30.123Z,103216.56
2023-02-08T03:01:00.749Z,103222.66
2023-02-08T03:03:34.794Z,103216.63
2023-02-08T03:06:11.721Z,103221.78
2023-02-08T03:09:26.929Z,103234.78
2023-02-08T03:12:11.448Z,103217.47
2023-02-08T03:14:56.978Z,103214.84
2023-02-08T03:17:56.940Z,103219.22
2023-02-08T03:20:33.440Z,103215.66
2023-02-08T03:23:15.730Z,103234.78
2023-02-08T03:25:55.115Z,103237.34
2023-02-08T03:28:32.017Z,103242.38
2023-02-08T03:31:13.743Z,103234.59
2023-02-08T03:33:52.740Z,103231.09
2023-02-08T03:36:28.676Z,103234.53
2023-02-08T03:39:02.688Z,103235.50
2023-02-08T03:41:39.001Z,103229.38
2023-02-08T03:44:16.220Z,103239.69
2023-02-08T03:46:53.939Z,103247.53
2023-02-08T03:49:29.829Z,103239.81
2023-02-08T03:52:03.110Z,103249.31
2023-02-08T03:54:39.781Z,103251.91
2023-02-08T03:57:17.769Z,103233.66
2023-02-08T03:59:54.884Z,103237.13
2023-02-08T04:02:29.375Z,103241.50
2023-02-08T04:05:01.824Z,103240.69
2023-02-08T04:07:30.849Z,103240.66
2023-02-08T04:10:01.542Z,103241.63
2023-02-08T04:12:30.690Z,103240.66
2023-02-08T04:14:59.917Z,103251.13
2023-02-08T04:17:28.925Z,103245.09
2023-02-08T04:19:58.245Z,103255.47
2023-02-08T04:22:27.206Z,103255.47
2023-02-08T04:24:56.664Z,103250.16
2023-02-08T04:27:27.137Z,103247.53
2023-02-08T04:29:56.439Z,103250.16
2023-02-08T04:32:25.392Z,103251.06
2023-02-08T04:34:54.637Z,103250.25
2023-02-08T04:37:23.820Z,103252.00
2023-02-08T04:39:53.078Z,103251.13
2023-02-08T04:42:22.139Z,103253.78
2023-02-08T04:44:52.763Z,103255.50
2023-02-08T04:47:22.051Z,103256.38
2023-02-08T04:49:51.334Z,103256.38
2023-02-08T04:52:20.312Z,103252.00
2023-02-08T04:54:49.588Z,103258.94
2023-02-08T04:57:18.539Z,103258.97
2023-02-08T04:59:47.813Z,103262.41
2023-02-08T05:02:18.154Z,103265.81
2023-02-08T05:04:47.623Z,103264.94
2023-02-08T05:07:16.667Z,103260.63
2023-02-08T05:09:45.927Z,103266.75
2023-02-08T05:12:14.899Z,103270.19
2023-02-08T05:14:44.112Z,103278.91
2023-02-08T05:17:13.133Z,103268.47
2023-02-08T05:19:43.777Z,103271.09
2023-02-08T05:22:12.697Z,103284.94
2023-02-08T05:24:42.039Z,103277.13
2023-02-08T05:27:11.088Z,103289.28
2023-02-08T05:29:40.367Z,103289.28
2023-02-08T05:32:09.336Z,103284.09
2023-02-08T05:34:39.475Z,103288.38
2023-02-08T05:37:09.868Z,103287.56
2023-02-08T05:39:39.096Z,103289.28
2023-02-08T05:42:08.381Z,103300.53
2023-02-08T05:44:37.607Z,103303.13
2023-02-08T05:47:06.789Z,103300.47
2023-02-08T05:49:36.107Z,103304.78
2023-02-08T05:52:05.603Z,103304.78
2023-02-08T05:54:36.283Z,103308.25
2023-02-08T05:57:05.471Z,103316.91
2023-02-08T05:59:34.769Z,103314.31
2023-02-08T06:02:03.764Z,103315.13
2023-02-08T06:04:33.011Z,103316.03
2023-02-08T06:07:01.952Z,103330.81
2023-02-08T06:09:31.275Z,103329.91
2023-02-08T06:12:01.742Z,103327.34
2023-02-08T06:14:31.063Z,103335.13
2023-02-08T06:17:00.468Z,103336.84
2023-02-08T06:19:29.732Z,103337.72
2023-02-08T06:21:58.793Z,103339.44
2023-02-08T06:24:28.079Z,103342.03
2023-02-08T06:26:57.929Z,103341.19
2023-02-08T06:29:28.447Z,103333.41
2023-02-08T06:31:57.384Z,103344.66
2023-02-08T06:34:26.567Z,103336.00
2023-02-08T06:36:55.410Z,103338.59
2023-02-08T06:39:24.898Z,103346.38
2023-02-08T06:41:53.699Z,103342.00
2023-02-08T06:44:22.772Z,103342.03
2023-02-08T06:46:53.419Z,103349.00
2023-02-08T06:49:22.541Z,103347.28
2023-02-08T06:51:51.439Z,103354.25
2023-02-08T06:54:20.843Z,103359.53
2023-02-08T06:56:49.722Z,103367.34
2023-02-08T06:59:18.833Z,103363.88
2023-02-08T07:01:47.733Z,103370.00
2023-02-08T07:04:18.393Z,103369.94
2023-02-08T07:06:49.891Z,103378.56
2023-02-08T07:09:19.217Z,103378.47
2023-02-08T07:11:48.806Z,103391.47
2023-02-08T07:14:18.032Z,103388.91
2023-02-08T07:16:47.385Z,103397.56
2023-02-08T07:19:17.858Z,103398.44
2023-02-08T07:21:46.645Z,103396.66
2023-02-08T07:24:15.784Z,103402.78
2023-02-08T07:26:44.644Z,103403.66
2023-02-08T07:29:13.718Z,103397.63
2023-02-08T07:31:42.595Z,103407.28
2023-02-08T07:34:11.703Z,103404.53
2023-02-08T07:36:41.883Z,103397.72
2023-02-08T07:39:10.995Z,103397.72
2023-02-08T07:41:39.831Z,103391.63
2023-02-08T07:44:09.003Z,103396.69
2023-02-08T07:46:37.918Z,103391.44
2023-02-08T07:49:07.438Z,103391.44
2023-02-08T07:51:36.337Z,103393.34
2023-02-08T07:54:06.867Z,103388.09
2023-02-08T07:56:35.827Z,103389.09
2023-02-08T07:59:05.176Z,103389.94
2023-02-08T08:01:34.197Z,103389.97
2023-02-08T08:04:03.447Z,103396.00
2023-02-08T08:06:32.286Z,103401.84
2023-02-08T08:09:01.498Z,103405.31
2023-02-08T08:11:31.724Z,103397.56
2023-02-08T08:14:00.856Z,103402.72
2023-02-08T08:16:29.718Z,103401.16
2023-02-08T08:18:58.851Z,103407.09
2023-02-08T08:21:27.748Z,103403.63
2023-02-08T08:23:56.859Z,103404.53
2023-02-08T08:26:25.668Z,103409.75
2023-02-08T08:28:56.101Z,103415.78
2023-02-08T08:31:25.089Z,103408.22
2023-02-08T08:33:54.295Z,103405.72
2023-02-08T08:36:23.125Z,103415.22
2023-02-08T08:38:53.475Z,103410.00
2023-02-08T08:41:23.224Z,103416.06
2023-02-08T08:43:52.678Z,103416.06
2023-02-08T08:46:22.940Z,103419.69
2023-02-08T08:48:52.774Z,103415.31
2023-02-08T08:51:21.950Z,103409.97
2023-02-08T08:53:51.110Z,103412.50
2023-02-08T08:56:20.494Z,103428.19
2023-02-08T08:58:49.881Z,103423.13
2023-02-08T09:01:18.896Z,103422.03
2023-02-08T09:03:49.388Z,103425.66
2023-02-08T09:06:19.076Z,103421.41
2023-02-08T09:08:50.264Z,103423.28
2023-02-08T09:11:20.581Z,103425.97
2023-02-08T09:13:52.895Z,103425.22
2023-02-08T09:16:21.948Z,103425.25
2023-02-08T09:18:52.594Z,103419.19
2023-02-08T09:21:26.126Z,103425.28
2023-02-08T09:23:55.284Z,103428.81
2023-02-08T09:26:25.221Z,103429.72
2023-02-08T09:28:54.594Z,103428.94
2023-02-08T09:31:26.786Z,103424.56
2023-02-08T09:34:01.410Z,103432.38
2023-02-08T09:36:33.628Z,103427.16
2023-02-08T09:39:08.206Z,103430.63
2023-02-08T09:42:16.605Z,103432.59
2023-02-08T09:45:17.162Z,103436.19
2023-02-08T09:47:51.963Z,103440.50
2023-02-08T09:50:32.812Z,103439.66
2023-02-08T09:53:12.531Z,103432.91
2023-02-08T09:55:47.370Z,103438.94
2023-02-08T09:58:28.208Z,103432.84
2023-02-08T10:00:58.519Z,103436.25
2023-02-08T10:03:37.246Z,103438.13
2023-02-08T10:06:12.619Z,103432.88
2023-02-08T10:08:44.492Z,103442.38
2023-02-08T10:11:43.418Z,103444.16
2023-02-08T10:14:38.345Z,103441.56
2023-02-08T10:17:31.769Z,103435.66
2023-02-08T10:20:18.536Z,103428.75
2023-02-08T10:23:06.578Z,103427.03
2023-02-08T10:26:10.353Z,103427.09
2023-02-08T10:29:30.423Z,103433.19
2023-02-08T10:32:26.258Z,103432.25
2023-02-08T10:35:01.564Z,103437.28
2023-02-08T10:37:34.980Z,103428.78
2023-02-08T10:40:32.571Z,103425.25
2023-02-08T10:43:16.196Z,103434.81
2023-02-08T10:45:55.339Z,103428.84
2023-02-08T10:48:39.580Z,103420.16
2023-02-08T10:51:13.140Z,103419.31
2023-02-08T10:53:41.983Z,103417.78
2023-02-08T10:56:36.267Z,103417.84
2023-02-08T10:59:16.595Z,103412.78
2023-02-08T11:01:49.189Z,103415.44
2023-02-08T11:04:19.756Z,103408.53
2023-02-08T11:06:51.802Z,103405.81
2023-02-08T11:09:29.128Z,103397.06
2023-02-08T11:12:03.429Z,103396.09
2023-02-08T11:14:47.187Z,103402.19
2023-02-08T11:17:29.824Z,103395.50
2023-02-08T11:20:01.073Z,103402.25
2023-02-08T11:22:32.384Z,103399.75
2023-02-08T11:25:05.502Z,103400.72
2023-02-08T11:27:40.525Z,103404.22
2023-02-08T11:30:24.634Z,103400.56
2023-02-08T11:33:22.792Z,103405.66
2023-02-08T11:36:14.058Z,103408.13
2023-02-08T11:38:44.617Z,103396.75
2023-02-08T11:41:20.045Z,103409.69
2023-02-08T11:44:03.857Z,103405.56
2023-02-08T11:46:37.375Z,103402.09
2023-02-08T11:49:06.607Z,103400.34
2023-02-08T11:51:38.701Z,103403.91
2023-02-08T11:54:08.039Z,103405.59
2023-02-08T11:56:36.998Z,103404.03
2023-02-08T11:59:23.658Z,103394.56
2023-02-08T12:01:52.662Z,103395.56
2023-02-08T12:04:22.343Z,103394.84
2023-02-08T12:07:21.369Z,103398.47
2023-02-08T12:10:41.117Z,103401.13
2023-02-08T12:13:45.518Z,103394.97
2023-02-08T12:16:42.902Z,103404.59
2023-02-08T12:19:58.815Z,103394.03
2023-02-08T12:22:29.834Z,103392.28
2023-02-08T12:25:23.342Z,103399.16
2023-02-08T12:28:03.546Z,103397.28
2023-02-08T12:30:36.621Z,103399.13
2023-02-08T12:33:36.914Z,103391.41
2023-02-08T12:36:46.376Z,103391.44
2023-02-08T12:39:53.508Z,103384.50
2023-02-08T12:42:49.507Z,103369.72
2023-02-08T12:45:53.479Z,103368.78
2023-02-08T12:49:03.777Z,103368.72
2023-02-08T12:51:44.953Z,103370.50
2023-02-08T12:54:23.050Z,103367.13
2023-02-08T12:57:01.920Z,103358.53
2023-02-08T12:59:40.699Z,103360.34
2023-02-08T13:02:21.902Z,103358.63
2023-02-08T13:04:59.645Z,103359.47
2023-02-08T13:07:36.676Z,103355.88
2023-02-08T13:10:14.603Z,103351.59
2023-02-08T13:12:53.281Z,103353.41
2023-02-08T13:15:31.208Z,103345.53
2023-02-08T13:18:11.982Z,103355.06
2023-02-08T13:20:47.143Z,103350.75
2023-02-08T13:23:25.745Z,103338.53
2023-02-08T13:25:59.243Z,103342.03
2023-02-08T13:28:29.758Z,103338.59
2023-02-08T13:31:05.352Z,103343.00
2023-02-08T13:34:00.433Z,103337.75
2023-02-08T13:36:36.216Z,103335.16
2023-02-08T13:39:08.984Z,103335.13
2023-02-08T13:41:38.665Z,103337.66
2023-02-08T13:44:19.435Z,103326.22
2023-02-08T13:46:51.549Z,103327.81
2023-02-08T13:49:45.250Z,103335.53
2023-02-08T13:52:51.592Z,103333.81
2023-02-08T13:55:57.996Z,103319.84
2023-02-08T13:59:01.143Z,103330.31
2023-02-08T14:01:33.001Z,103332.06
2023-02-08T14:04:42.147Z,103334.56
2023-02-08T14:07:24.992Z,103336.31
2023-02-08T14:10:10.709Z,103330.19
2023-02-08T14:12:51.495Z,103328.47
2023-02-08T14:15:39.346Z,103331.94
2023-02-08T14:18:27.679Z,103341.47
2023-02-08T14:21:06.840Z,103340.56
2023-02-08T14:23:40.799Z,103332.72
2023-02-08T14:26:24.226Z,103330.25
2023-02-08T14:28:59.171Z,103331.19
2023-02-08T14:31:41.879Z,103322.53
2023-02-08T14:34:34.619Z,103324.25
2023-02-08T14:37:27.219Z,103326.00
2023-02-08T14:40:48.765Z,103334.59
2023-02-08T14:43:37.291Z,103331.94
2023-02-08T14:46:45.720Z,103330.13
2023-02-08T14:49:17.046Z,103339.63
2023-02-08T14:51:53.072Z,103331.75
2023-02-08T14:54:33.782Z,103342.09
2023-02-08T14:57:08.639Z,103333.38
2023-02-08T14:59:39.999Z,103330.72
2023-02-08T15:02:21.705Z,103324.59
2023-02-08T15:04:50.923Z,103327.09
2023-02-08T15:07:33.378Z,103327.91
2023-02-08T15:10:05.449Z,103333.81
2023-02-08T15:12:39.908Z,103334.59
2023-02-08T15:15:27.196Z,103325.06
2023-02-08T15:17:57.868Z,103337.06
2023-02-08T15:20:30.037Z,103334.34
2023-02-08T15:23:02.699Z,103337.66
2023-02-08T15:25:34.389Z,103340.16
2023-02-08T15:28:18.857Z,103340.06
2023-02-08T15:30:57.932Z,103326.16
2023-02-08T15:33:27.624Z,103334.72
2023-02-08T15:36:06.250Z,103333.72
2023-02-08T15:38:39.631Z,103329.28
2023-02-08T15:41:13.148Z,103323.13
2023-02-08T15:43:44.193Z,103317.78
2023-02-08T15:46:24.844Z,103318.53
2023-02-08T15:48:56.930Z,103318.41
2023-02-08T15:51:27.492Z,103311.44
2023-02-08T15:53:58.066Z,103302.72
2023-02-08T15:56:38.051Z,103306.91
2023-02-08T15:59:23.499Z,103304.31
2023-02-08T16:01:55.260Z,103298.00
2023-02-08T16:04:26.339Z,103298.81
2023-02-08T16:06:59.377Z,103291.81
2023-02-08T16:09:30.339Z,103290.91
2023-02-08T16:12:02.416Z,103295.94
2023-02-08T16:14:47.210Z,103290.72
2023-02-08T16:17:38.991Z,103301.16
2023-02-08T16:20:30.094Z,103288.16
2023-02-08T16:23:03.671Z,103293.22
2023-02-08T16:25:44.635Z,103282.72
2023-02-08T16:28:28.867Z,103284.34
2023-02-08T16:31:01.573Z,103285.19
2023-02-08T16:33:34.931Z,103288.63
2023-02-08T16:36:04.783Z,103279.91
2023-02-08T16:38:36.088Z,103280.78
2023-02-08T16:41:13.577Z,103272.88
2023-02-08T16:43:44.717Z,103274.56
2023-02-08T16:46:27.761Z,103276.16
2023-02-08T16:48:59.115Z,103262.16
2023-02-08T16:51:32.770Z,103263.81
2023-02-08T16:54:07.469Z,103264.47
2023-02-08T16:56:37.284Z,103269.59
2023-02-08T16:59:06.639Z,103271.34
2023-02-08T17:01:38.257Z,103267.84
2023-02-08T17:04:08.555Z,103265.22
2023-02-08T17:06:41.383Z,103259.16
2023-02-08T17:09:14.811Z,103268.72
2023-02-08T17:11:43.940Z,103264.41
2023-02-08T17:14:12.873Z,103264.34
2023-02-08T17:16:42.007Z,103259.16
2023-02-08T17:19:18.718Z,103262.72
2023-02-08T17:21:47.847Z,103257.44
2023-02-08T17:24:17.404Z,103256.53
2023-02-08T17:26:46.839Z,103255.53
2023-02-08T17:29:15.667Z,103247.56
2023-02-08T17:31:44.794Z,103248.28
2023-02-08T17:34:17.620Z,103249.97
2023-02-08T17:36:46.725Z,103237.78
2023-02-08T17:39:16.800Z,103231.72
2023-02-08T17:41:45.903Z,103228.06
2023-02-08T17:44:15.243Z,103244.47
2023-02-08T17:46:44.400Z,103241.00
2023-02-08T17:49:16.292Z,103242.69
2023-02-08T17:51:45.406Z,103235.72
2023-02-08T17:54:14.982Z,103247.06
2023-02-08T17:56:44.138Z,103239.25
2023-02-08T17:59:13.739Z,103246.19
2023-02-08T18:01:44.527Z,103243.53
2023-02-08T18:04:14.831Z,103247.69
2023-02-08T18:06:44.103Z,103253.69
2023-02-08T18:09:12.964Z,103258.91
2023-02-08T18:11:42.547Z,103257.22
2023-02-08T18:14:11.456Z,103260.66
2023-02-08T18:16:40.592Z,103259.69
2023-02-08T18:19:09.787Z,103256.19
2023-02-08T18:21:40.336Z,103260.50
2023-02-08T18:24:09.278Z,103265.47
2023-02-08T18:26:38.413Z,103258.34
2023-02-08T18:29:07.536Z,103261.78
2023-02-08T18:31:37.668Z,103256.53
2023-02-08T18:34:06.588Z,103262.47
2023-02-08T18:36:35.669Z,103250.28
2023-02-08T18:39:05.981Z,103244.13
2023-02-08T18:41:35.480Z,103243.38
2023-02-08T18:44:04.329Z,103236.34
2023-02-08T18:46:33.617Z,103231.91
2023-02-08T18:49:02.488Z,103232.72
2023-02-08T18:51:31.894Z,103239.50
2023-02-08T18:54:00.891Z,103235.91
2023-02-08T18:56:32.464Z,103240.22
2023-02-08T18:59:01.737Z,103234.19
2023-02-08T19:01:30.982Z,103237.47
2023-02-08T19:04:00.700Z,103235.47
2023-02-08T19:06:31.719Z,103238.78
2023-02-08T19:09:05.110Z,103244.00
2023-02-08T19:11:38.910Z,103238.78
2023-02-08T19:14:12.284Z,103244.81
2023-02-08T19:16:43.983Z,103248.22
2023-02-08T19:19:13.417Z,103249.00
2023-02-08T19:21:42.325Z,103241.06
2023-02-08T19:24:15.385Z,103240.94
2023-02-08T19:26:45.804Z,103234.75
2023-02-08T19:29:17.809Z,103236.47
2023-02-08T19:31:48.230Z,103238.16
2023-02-08T19:34:20.308Z,103231.09
2023-02-08T19:36:53.397Z,103209.47
2023-02-08T19:39:25.602Z,103211.06
2023-02-08T19:41:58.653Z,103213.50
2023-02-08T19:44:30.474Z,103206.38
2023-02-08T19:47:00.366Z,103206.47
2023-02-08T19:49:29.674Z,103202.88
2023-02-08T19:51:58.924Z,103207.25
2023-02-08T19:54:28.058Z,103208.16
2023-02-08T19:56:58.272Z,103207.97
2023-02-08T19:59:34.222Z,103204.56
2023-02-08T20:02:06.275Z,103201.78
2023-02-08T20:04:35.509Z,103208.44
2023-02-08T20:07:05.355Z,103206.47
2023-02-08T20:09:35.260Z,103209.03
2023-02-08T20:12:06.357Z,103199.28
2023-02-08T20:14:35.499Z,103201.88
2023-02-08T20:17:05.167Z,103199.19
2023-02-08T20:19:38.031Z,103194.84
2023-02-08T20:22:07.346Z,103201.00
2023-02-08T20:24:36.410Z,103207.03
2023-02-08T20:27:06.676Z,103197.47
2023-02-08T20:29:36.052Z,103205.03
2023-02-08T20:32:05.296Z,103211.72
2023-02-08T20:34:34.662Z,103208.03
2023-02-08T20:37:07.815Z,103194.22
2023-02-08T20:39:38.488Z,103183.88
2023-02-08T20:42:09.940Z,103185.59
2023-02-08T20:44:39.100Z,103182.16
2023-02-08T20:47:09.007Z,103176.19
2023-02-08T20:49:40.090Z,103172.53
2023-02-08T20:52:08.989Z,103172.38
2023-02-08T20:54:39.158Z,103173.00
2023-02-08T20:57:13.690Z,103170.31
2023-02-08T20:59:43.509Z,103176.38
2023-02-08T21:02:19.305Z,103178.28
2023-02-08T21:04:48.814Z,103170.66
2023-02-08T21:07:18.582Z,103167.44
2023-02-08T21:09:48.051Z,103169.16
2023-02-08T21:12:18.675Z,103164.16
2023-02-08T21:14:47.855Z,103176.75
2023-02-08T21:17:16.851Z,103169.66
2023-02-08T21:19:47.658Z,103164.44
2023-02-08T21:22:17.160Z,103175.72
2023-02-08T21:24:46.292Z,103179.25
2023-02-08T21:27:15.359Z,103175.06
2023-02-08T21:29:46.392Z,103169.09
2023-02-08T21:32:18.821Z,103170.00
2023-02-08T21:34:50.047Z,103157.94
2023-02-08T21:37:19.250Z,103165.56
2023-02-08T21:39:48.422Z,103162.28
2023-02-08T21:42:17.290Z,103172.59
2023-02-08T21:44:47.801Z,103164.75
2023-02-08T21:47:16.614Z,103160.34
2023-02-08T21:50:05.359Z,103153.28
2023-02-08T21:52:51.630Z,103150.50
2023-02-08T21:55:20.932Z,103157.91
2023-02-08T21:57:49.752Z,103168.91
2023-02-08T22:00:20.449Z,103157.69
2023-02-08T22:02:49.344Z,103149.16
2023-02-08T22:05:20.553Z,103153.41
2023-02-08T22:07:54.315Z,103141.22
2023-02-08T22:10:27.011Z,103145.34
2023-02-08T22:12:57.272Z,103147.06
2023-02-08T22:15:30.751Z,103133.28
2023-02-08T22:18:05.539Z,103136.50
2023-02-08T22:20:34.656Z,103130.44
2023-02-08T22:23:03.559Z,103129.69
2023-02-08T22:25:32.960Z,103137.50
2023-02-08T22:28:01.780Z,103134.00
2023-02-08T22:30:32.624Z,103140.84
2023-02-08T22:33:01.479Z,103138.16
2023-02-08T22:35:30.965Z,103140.75
2023-02-08T22:37:59.763Z,103138.97
2023-02-08T22:40:28.969Z,103127.91
2023-02-08T22:42:57.892Z,103126.19
2023-02-08T22:45:27.122Z,103113.28
2023-02-08T22:47:57.289Z,103108.84
2023-02-08T22:50:26.363Z,103105.25
2023-02-08T22:52:55.140Z,103104.19
2023-02-08T22:55:24.341Z,103094.78
2023-02-08T22:57:53.157Z,103099.09
2023-02-08T23:00:22.660Z,103083.56
2023-02-08T23:02:51.579Z,103081.75
2023-02-08T23:05:22.164Z,103088.66
2023-02-08T23:07:51.041Z,103096.22
2023-02-08T23:10:20.271Z,103093.66
2023-02-08T23:12:49.040Z,103075.56
2023-02-08T23:15:18.564Z,103074.66
2023-02-08T23:17:47.324Z,103080.19
2023-02-08T23:20:16.489Z,103081.94
2023-02-08T23:22:46.682Z,103073.31
2023-02-08T23:25:15.867Z,103072.50
2023-02-08T23:27:44.736Z,103064.44
2023-02-08T23:30:14.538Z,103069.59
2023-02-08T23:32:43.705Z,103060.06
2023-02-08T23:35:13.300Z,103064.34
2023-02-08T23:37:42.108Z,103058.22
2023-02-08T23:40:14.027Z,103054.91
2023-02-08T23:42:42.854Z,103050.72
2023-02-08T23:45:12.142Z,103047.13
2023-02-08T23:47:41.203Z,103042.78
2023-02-08T23:50:12.219Z,103053.81
2023-02-08T23:52:41.041Z,103048.63
2023-02-08T23:55:12.237Z,103050.22
2023-02-08T23:57:41.103Z,103051.03
